createdAt,value
2018-08-16T00:00:16.429Z,25.30
2018-08-16T00:02:45.908Z,25.30
2018-08-16T00:05:14.826Z,25.20
2018-08-16T00:07:43.618Z,25.10
2018-08-16T00:10:14.018Z,25.10
2018-08-16T00:12:44.151Z,25.10
2018-08-16T00:15:13.221Z,25.10
2018-08-16T00:17:42.077Z,25.10
2018-08-16T00:20:11.091Z,25.10
2018-08-16T00:22:39.789Z,25.00
2018-08-16T00:25:09.515Z,25.00
2018-08-16T00:27:43.137Z,25.00
2018-08-16T00:30:18.445Z,24.90
2018-08-16T00:32:47.555Z,24.90
2018-08-16T00:35:16.305Z,24.90
2018-08-16T00:37:45.060Z,24.90
2018-08-16T00:40:17.083Z,24.80
2018-08-16T00:42:45.758Z,24.80
2018-08-16T00:45:14.751Z,24.70
2018-08-16T00:47:43.496Z,24.70
2018-08-16T00:50:13.924Z,24.50
2018-08-16T00:52:42.736Z,24.50
2018-08-16T00:55:12.615Z,24.40
2018-08-16T00:57:41.266Z,24.30
2018-08-16T01:00:11.530Z,24.30
2018-08-16T01:02:40.221Z,24.30
2018-08-16T01:05:09.011Z,24.30
2018-08-16T01:07:38.406Z,24.10
2018-08-16T01:10:11.373Z,24.20
2018-08-16T01:12:40.492Z,24.20
2018-08-16T01:15:11.868Z,24.20
2018-08-16T01:17:40.801Z,24.20
2018-08-16T01:20:09.662Z,24.30
2018-08-16T01:22:39.032Z,24.20
2018-08-16T01:25:08.919Z,23.90
2018-08-16T01:27:38.208Z,23.90
2018-08-16T01:30:08.361Z,23.80
2018-08-16T01:32:37.518Z,23.80
2018-08-16T01:35:07.282Z,23.80
2018-08-16T01:37:36.043Z,23.80
2018-08-16T01:40:05.791Z,23.80
2018-08-16T01:42:34.625Z,23.80
2018-08-16T01:45:03.416Z,23.80
2018-08-16T01:47:32.110Z,23.70
2018-08-16T01:50:00.787Z,23.60
2018-08-16T01:52:29.512Z,23.60
2018-08-16T01:54:58.188Z,23.50
2018-08-16T01:57:26.884Z,23.50
2018-08-16T01:59:55.569Z,23.50
2018-08-16T02:02:24.318Z,23.40
2018-08-16T02:04:53.009Z,23.50
2018-08-16T02:07:21.731Z,23.50
2018-08-16T02:09:50.476Z,23.50
2018-08-16T02:12:19.277Z,23.50
2018-08-16T02:14:47.966Z,23.40
2018-08-16T02:17:16.735Z,23.40
2018-08-16T02:19:45.369Z,23.40
2018-08-16T02:22:14.153Z,23.40
2018-08-16T02:24:42.824Z,23.50
2018-08-16T02:27:11.533Z,23.50
2018-08-16T02:29:40.295Z,23.50
2018-08-16T02:32:09.133Z,23.50
2018-08-16T02:34:38.652Z,23.50
2018-08-16T02:37:07.386Z,23.50
2018-08-16T02:39:36.570Z,23.50
2018-08-16T02:42:05.430Z,23.40
2018-08-16T02:44:34.144Z,23.40
2018-08-16T02:47:02.802Z,23.30
2018-08-16T02:49:33.035Z,23.30
2018-08-16T02:52:01.794Z,23.30
2018-08-16T02:54:30.497Z,23.40
2018-08-16T02:56:59.276Z,23.50
2018-08-16T02:59:27.985Z,23.50
2018-08-16T03:01:57.277Z,23.40
2018-08-16T03:04:25.953Z,23.40
2018-08-16T03:06:54.684Z,23.50
2018-08-16T03:09:23.324Z,23.40
2018-08-16T03:11:52.999Z,23.30
2018-08-16T03:14:21.684Z,23.30
2018-08-16T03:16:50.345Z,23.20
2018-08-16T03:19:19.015Z,23.10
2018-08-16T03:21:47.876Z,23.10
2018-08-16T03:24:16.566Z,23.10
2018-08-16T03:26:45.216Z,23.10
2018-08-16T03:29:13.904Z,23.10
2018-08-16T03:31:42.651Z,23.10
2018-08-16T03:34:11.316Z,23.10
2018-08-16T03:36:39.993Z,23.10
2018-08-16T03:39:09.455Z,23.10
2018-08-16T03:41:38.940Z,23.10
2018-08-16T03:44:08.317Z,23.10
2018-08-16T03:46:41.028Z,23.10
2018-08-16T03:49:09.748Z,23.10
2018-08-16T03:51:39.644Z,22.90
2018-08-16T03:54:08.333Z,22.90
2018-08-16T03:56:40.931Z,22.80
2018-08-16T03:59:09.716Z,22.60
2018-08-16T04:01:42.711Z,22.50
2018-08-16T04:04:11.397Z,22.50
2018-08-16T04:06:40.116Z,22.50
2018-08-16T04:09:09.197Z,22.40
2018-08-16T04:11:38.977Z,22.20
2018-08-16T04:14:07.704Z,22.20
2018-08-16T04:16:36.349Z,22.10
2018-08-16T04:19:05.029Z,22.00
2018-08-16T04:21:33.752Z,22.00
2018-08-16T04:24:02.484Z,22.10
2018-08-16T04:26:31.218Z,22.20
2018-08-16T04:28:59.905Z,22.40
2018-08-16T04:31:28.700Z,22.40
2018-08-16T04:33:57.601Z,22.40
2018-08-16T04:36:26.304Z,22.40
2018-08-16T04:38:54.960Z,22.30
2018-08-16T04:41:23.658Z,22.30
2018-08-16T04:43:52.387Z,22.40
2018-08-16T04:46:21.741Z,22.50
2018-08-16T04:48:50.445Z,22.60
2018-08-16T04:51:19.149Z,22.40
2018-08-16T04:53:48.118Z,22.40
2018-08-16T04:56:16.960Z,22.50
2018-08-16T04:58:45.597Z,22.60
2018-08-16T05:01:14.246Z,22.70
2018-08-16T05:03:42.960Z,22.70
2018-08-16T05:06:18.229Z,22.80
2018-08-16T05:08:46.939Z,22.80
2018-08-16T05:11:15.632Z,22.80
2018-08-16T05:13:44.265Z,22.80
2018-08-16T05:16:19.455Z,22.90
2018-08-16T05:18:48.097Z,22.90
2018-08-16T05:21:17.301Z,22.80
2018-08-16T05:23:46.031Z,22.90
2018-08-16T05:26:14.687Z,22.90
2018-08-16T05:28:43.351Z,23.00
2018-08-16T05:31:12.020Z,23.10
2018-08-16T05:33:40.710Z,23.10
2018-08-16T05:36:09.452Z,23.10
2018-08-16T05:38:38.878Z,23.20
2018-08-16T05:41:07.624Z,23.20
2018-08-16T05:43:36.477Z,23.20
2018-08-16T05:46:05.422Z,23.20
2018-08-16T05:48:34.096Z,23.10
2018-08-16T05:51:02.784Z,23.20
2018-08-16T05:53:31.489Z,23.20
2018-08-16T05:56:00.213Z,23.30
2018-08-16T05:58:28.938Z,23.40
2018-08-16T06:00:57.612Z,23.50
2018-08-16T06:03:26.265Z,23.60
2018-08-16T06:05:55.033Z,23.70
2018-08-16T06:08:23.674Z,23.70
2018-08-16T06:10:52.368Z,23.50
2018-08-16T06:13:21.160Z,23.60
2018-08-16T06:15:49.916Z,23.70
2018-08-16T06:18:18.675Z,23.60
2018-08-16T06:20:47.374Z,23.50
2018-08-16T06:23:16.007Z,23.40
2018-08-16T06:25:49.104Z,23.50
2018-08-16T06:28:17.848Z,23.50
2018-08-16T06:30:47.130Z,23.30
2018-08-16T06:33:15.854Z,23.20
2018-08-16T06:35:44.569Z,23.20
2018-08-16T06:38:13.310Z,23.30
2018-08-16T06:40:41.985Z,23.30
2018-08-16T06:43:10.708Z,23.40
2018-08-16T06:45:39.764Z,23.50
2018-08-16T06:48:08.910Z,23.60
2018-08-16T06:50:38.601Z,23.80
2018-08-16T06:53:07.474Z,23.70
2018-08-16T06:55:36.209Z,23.70
2018-08-16T06:58:04.956Z,23.80
2018-08-16T07:00:33.886Z,23.90
2018-08-16T07:03:03.368Z,23.90
2018-08-16T07:05:32.354Z,23.90
2018-08-16T07:08:01.089Z,24.00
2018-08-16T07:10:30.525Z,24.00
2018-08-16T07:12:59.209Z,24.00
2018-08-16T07:15:28.028Z,24.20
2018-08-16T07:17:56.752Z,24.30
2018-08-16T07:20:25.444Z,24.40
2018-08-16T07:22:54.339Z,24.30
2018-08-16T07:25:23.052Z,24.30
2018-08-16T07:27:51.831Z,24.40
2018-08-16T07:30:21.092Z,24.30
2018-08-16T07:32:49.787Z,24.30
2018-08-16T07:35:19.829Z,24.30
2018-08-16T07:37:48.700Z,24.20
2018-08-16T07:40:24.166Z,24.30
2018-08-16T07:42:52.880Z,24.30
2018-08-16T07:45:22.423Z,24.20
2018-08-16T07:47:51.791Z,24.00
2018-08-16T07:50:21.607Z,24.00
2018-08-16T07:52:51.164Z,24.10
2018-08-16T07:55:20.189Z,24.20
2018-08-16T07:57:49.192Z,24.20
2018-08-16T08:00:19.050Z,24.20
2018-08-16T08:02:47.848Z,24.00
2018-08-16T08:05:16.720Z,24.10
2018-08-16T08:07:45.739Z,24.30
2018-08-16T08:10:14.583Z,24.40
2018-08-16T08:12:43.413Z,24.50
2018-08-16T08:15:13.728Z,24.50
2018-08-16T08:17:42.549Z,24.50
2018-08-16T08:20:15.844Z,24.60
2018-08-16T08:22:44.607Z,24.70
2018-08-16T08:25:14.338Z,24.70
2018-08-16T08:27:43.073Z,24.70
2018-08-16T08:30:14.562Z,24.60
2018-08-16T08:32:43.414Z,24.60
2018-08-16T08:35:12.261Z,24.70
2018-08-16T08:37:52.622Z,24.80
2018-08-16T08:40:21.430Z,24.80
2018-08-16T08:42:50.141Z,24.70
2018-08-16T08:45:18.924Z,24.90
2018-08-16T08:47:55.275Z,24.80
2018-08-16T08:50:24.405Z,24.90
2018-08-16T08:52:53.110Z,24.90
2018-08-16T08:55:33.018Z,25.00
2018-08-16T08:58:12.701Z,24.90
2018-08-16T09:00:41.460Z,25.00
2018-08-16T09:03:10.467Z,25.10
2018-08-16T09:05:39.825Z,25.10
2018-08-16T09:08:08.654Z,25.30
2018-08-16T09:10:58.781Z,25.50
2018-08-16T09:13:39.980Z,25.40
2018-08-16T09:16:13.574Z,25.30
2018-08-16T09:18:42.390Z,25.40
2018-08-16T09:21:11.945Z,25.60
2018-08-16T09:23:40.637Z,25.70
2018-08-16T09:26:14.508Z,25.60
2018-08-16T09:28:43.332Z,25.80
2018-08-16T09:31:23.722Z,25.90
2018-08-16T09:34:34.626Z,26.00
2018-08-16T09:37:03.323Z,26.10
2018-08-16T09:39:32.970Z,26.10
2018-08-16T09:42:01.716Z,26.10
2018-08-16T09:44:30.397Z,26.20
2018-08-16T09:47:11.925Z,26.30
2018-08-16T09:49:44.589Z,26.30
2018-08-16T09:52:14.040Z,26.40
2018-08-16T09:54:42.871Z,26.50
2018-08-16T09:57:12.820Z,26.60
2018-08-16T09:59:41.676Z,26.50
2018-08-16T10:02:12.024Z,26.60
2018-08-16T10:04:40.755Z,26.80
2018-08-16T10:07:09.478Z,27.00
2018-08-16T10:09:38.753Z,27.20
2018-08-16T10:12:07.591Z,27.30
2018-08-16T10:14:36.356Z,27.30
2018-08-16T10:17:05.153Z,27.20
2018-08-16T10:19:33.856Z,27.20
2018-08-16T10:22:02.575Z,27.20
2018-08-16T10:24:31.320Z,27.20
2018-08-16T10:27:00.057Z,27.20
2018-08-16T10:29:28.740Z,27.20
2018-08-16T10:31:57.424Z,27.00
2018-08-16T10:34:26.188Z,27.10
2018-08-16T10:36:54.892Z,27.10
2018-08-16T10:39:23.610Z,27.30
2018-08-16T10:41:52.426Z,27.30
2018-08-16T10:44:21.180Z,27.50
2018-08-16T10:46:49.895Z,27.70
2018-08-16T10:49:18.799Z,27.70
2018-08-16T10:51:47.485Z,27.70
2018-08-16T10:54:16.194Z,27.60
2018-08-16T10:56:44.921Z,27.50
2018-08-16T10:59:13.666Z,27.50
2018-08-16T11:01:42.797Z,27.60
2018-08-16T11:04:11.552Z,27.80
2018-08-16T11:06:40.270Z,27.80
2018-08-16T11:09:10.070Z,27.80
2018-08-16T11:11:40.234Z,27.80
2018-08-16T11:14:09.249Z,27.90
2018-08-16T11:16:38.253Z,28.10
2018-08-16T11:19:09.944Z,28.00
2018-08-16T11:21:39.645Z,28.10
2018-08-16T11:24:08.411Z,28.30
2018-08-16T11:26:38.293Z,28.50
2018-08-16T11:29:06.979Z,28.70
2018-08-16T11:31:35.674Z,28.70
2018-08-16T11:34:04.352Z,28.80
2018-08-16T11:36:33.113Z,28.80
2018-08-16T11:39:01.772Z,28.70
2018-08-16T11:41:31.149Z,28.60
2018-08-16T11:43:59.866Z,28.60
2018-08-16T11:46:28.544Z,28.50
2018-08-16T11:48:57.238Z,28.40
2018-08-16T11:51:25.987Z,28.40
2018-08-16T11:53:54.656Z,28.30
2018-08-16T11:56:23.321Z,28.50
2018-08-16T11:58:52.031Z,28.50
2018-08-16T12:01:20.801Z,28.70
2018-08-16T12:03:49.452Z,28.90
2018-08-16T12:06:18.273Z,29.10
2018-08-16T12:08:46.893Z,29.20
2018-08-16T12:11:15.648Z,29.10
2018-08-16T12:13:45.013Z,29.10
2018-08-16T12:16:13.680Z,29.20
2018-08-16T12:18:42.361Z,29.30
2018-08-16T12:21:11.141Z,29.40
2018-08-16T12:23:40.269Z,29.50
2018-08-16T12:26:08.992Z,29.50
2018-08-16T12:28:37.689Z,29.20
2018-08-16T12:31:06.409Z,29.00
2018-08-16T12:33:35.068Z,28.80
2018-08-16T12:36:03.871Z,28.70
2018-08-16T12:38:32.568Z,28.60
2018-08-16T12:41:01.316Z,28.60
2018-08-16T12:43:35.808Z,28.80
2018-08-16T12:46:04.922Z,29.10
2018-08-16T12:48:33.900Z,29.30
2018-08-16T12:51:02.598Z,29.60
2018-08-16T12:53:31.374Z,29.70
2018-08-16T12:56:00.059Z,30.00
2018-08-16T12:58:28.798Z,29.90
2018-08-16T13:00:57.534Z,30.00
2018-08-16T13:03:26.279Z,29.80
2018-08-16T13:05:54.971Z,29.70
2018-08-16T13:08:23.609Z,29.60
2018-08-16T13:10:52.285Z,29.40
2018-08-16T13:13:20.985Z,29.20
2018-08-16T13:15:49.761Z,29.20
2018-08-16T13:18:18.443Z,29.10
2018-08-16T13:20:47.220Z,29.20
2018-08-16T13:23:15.950Z,29.50
2018-08-16T13:25:45.097Z,29.50
2018-08-16T13:28:14.298Z,29.70
2018-08-16T13:30:43.047Z,30.00
2018-08-16T13:33:11.820Z,30.30
2018-08-16T13:35:41.234Z,30.50
2018-08-16T13:38:09.987Z,30.80
2018-08-16T13:40:39.341Z,31.10
2018-08-16T13:43:08.362Z,31.20
2018-08-16T13:45:37.002Z,31.40
2018-08-16T13:48:06.096Z,31.50
2018-08-16T13:50:34.850Z,31.50
2018-08-16T13:53:03.631Z,31.50
2018-08-16T13:55:32.306Z,31.30
2018-08-16T13:58:01.025Z,31.50
2018-08-16T14:00:29.681Z,31.70
2018-08-16T14:02:58.381Z,31.90
2018-08-16T14:05:27.025Z,32.00
2018-08-16T14:07:55.734Z,32.00
2018-08-16T14:10:24.396Z,31.80
2018-08-16T14:12:53.254Z,31.80
2018-08-16T14:15:21.835Z,31.60
2018-08-16T14:17:50.470Z,30.90
2018-08-16T14:20:19.207Z,30.70
2018-08-16T14:22:47.871Z,30.40
2018-08-16T14:25:16.532Z,30.30
2018-08-16T14:27:47.554Z,30.20
2018-08-16T14:30:16.333Z,30.10
2018-08-16T14:32:44.977Z,29.60
2018-08-16T14:35:13.669Z,29.40
2018-08-16T14:37:42.285Z,29.30
2018-08-16T14:40:11.002Z,29.20
2018-08-16T14:42:40.120Z,29.30
2018-08-16T14:45:09.180Z,29.60
2018-08-16T14:47:38.582Z,29.70
2018-08-16T14:50:07.518Z,29.80
2018-08-16T14:52:36.762Z,29.70
2018-08-16T14:55:06.160Z,29.80
2018-08-16T14:57:34.988Z,30.00
2018-08-16T15:00:03.765Z,30.20
2018-08-16T15:02:32.554Z,30.40
2018-08-16T15:05:01.202Z,30.50
2018-08-16T15:07:29.901Z,30.60
2018-08-16T15:09:58.599Z,30.70
2018-08-16T15:12:27.345Z,30.90
2018-08-16T15:14:56.015Z,31.10
2018-08-16T15:17:24.738Z,31.20
2018-08-16T15:19:53.442Z,31.30
2018-08-16T15:22:22.160Z,31.50
2018-08-16T15:24:50.798Z,31.60
2018-08-16T15:27:19.497Z,31.60
2018-08-16T15:29:48.177Z,31.60
2018-08-16T15:32:16.852Z,31.60
2018-08-16T15:34:45.525Z,31.50
2018-08-16T15:37:14.188Z,31.30
2018-08-16T15:39:42.927Z,31.30
2018-08-16T15:42:11.739Z,31.30
2018-08-16T15:44:40.435Z,31.40
2018-08-16T15:47:09.184Z,31.60
2018-08-16T15:49:38.231Z,31.70
2018-08-16T15:52:07.119Z,32.00
2018-08-16T15:54:35.828Z,32.20
2018-08-16T15:57:04.545Z,32.40
2018-08-16T15:59:33.239Z,32.60
2018-08-16T16:02:01.994Z,32.80
2018-08-16T16:04:30.747Z,32.70
2018-08-16T16:06:59.455Z,32.80
2018-08-16T16:09:28.138Z,32.90
2018-08-16T16:11:56.800Z,33.00
2018-08-16T16:14:25.465Z,32.80
2018-08-16T16:16:54.069Z,32.60
2018-08-16T16:19:22.732Z,32.50
2018-08-16T16:21:51.421Z,32.40
2018-08-16T16:24:20.133Z,32.40
2018-08-16T16:26:48.820Z,32.50
2018-08-16T16:29:17.472Z,32.60
2018-08-16T16:31:46.121Z,32.80
2018-08-16T16:34:14.826Z,32.90
2018-08-16T16:36:43.998Z,33.10
2018-08-16T16:39:13.117Z,33.20
2018-08-16T16:41:41.778Z,33.30
2018-08-16T16:44:10.465Z,33.40
2018-08-16T16:46:43.907Z,33.50
2018-08-16T16:49:12.804Z,33.50
2018-08-16T16:51:41.514Z,33.60
2018-08-16T16:54:10.215Z,33.60
2018-08-16T16:56:39.600Z,33.60
2018-08-16T16:59:08.304Z,33.60
2018-08-16T17:01:37.942Z,33.50
2018-08-16T17:04:06.596Z,33.50
2018-08-16T17:06:35.294Z,33.40
2018-08-16T17:09:05.085Z,33.20
2018-08-16T17:11:33.859Z,33.00
2018-08-16T17:14:02.633Z,32.90
2018-08-16T17:16:31.273Z,32.80
2018-08-16T17:18:59.980Z,32.60
2018-08-16T17:21:28.638Z,32.40
2018-08-16T17:23:57.865Z,32.30
2018-08-16T17:26:26.638Z,32.10
2018-08-16T17:28:55.425Z,31.90
2018-08-16T17:31:24.217Z,31.70
2018-08-16T17:33:53.187Z,31.60
2018-08-16T17:36:21.839Z,31.40
2018-08-16T17:38:50.523Z,31.20
2018-08-16T17:41:19.280Z,31.10
2018-08-16T17:43:47.981Z,30.90
2018-08-16T17:46:16.702Z,30.90
2018-08-16T17:48:45.489Z,30.70
2018-08-16T17:51:14.153Z,30.60
2018-08-16T17:53:42.864Z,30.50
2018-08-16T17:56:11.593Z,30.40
2018-08-16T17:58:44.892Z,30.30
2018-08-16T18:01:13.659Z,30.20
2018-08-16T18:03:42.628Z,30.10
2018-08-16T18:06:11.326Z,30.00
2018-08-16T18:08:40.908Z,29.90
2018-08-16T18:11:10.021Z,29.80
2018-08-16T18:13:39.817Z,29.80
2018-08-16T18:16:08.724Z,29.70
2018-08-16T18:18:38.374Z,29.60
2018-08-16T18:21:07.089Z,29.60
2018-08-16T18:23:35.793Z,29.50
2018-08-16T18:26:04.577Z,29.40
2018-08-16T18:28:33.305Z,29.30
2018-08-16T18:31:02.346Z,29.20
2018-08-16T18:33:31.264Z,29.20
2018-08-16T18:35:59.996Z,29.20
2018-08-16T18:38:28.790Z,29.10
2018-08-16T18:40:57.554Z,29.10
2018-08-16T18:43:26.361Z,29.10
2018-08-16T18:45:55.109Z,29.00
2018-08-16T18:48:23.804Z,28.90
2018-08-16T18:50:52.584Z,28.90
2018-08-16T18:53:21.407Z,28.80
2018-08-16T18:55:51.694Z,28.70
2018-08-16T18:58:20.505Z,28.70
2018-08-16T19:00:49.204Z,28.60
2018-08-16T19:03:17.918Z,28.60
2018-08-16T19:05:46.772Z,28.50
2018-08-16T19:08:15.491Z,28.50
2018-08-16T19:10:44.234Z,28.40
2018-08-16T19:13:12.984Z,28.40
2018-08-16T19:15:41.730Z,28.30
2018-08-16T19:18:10.606Z,28.30
2018-08-16T19:20:39.973Z,28.20
2018-08-16T19:23:08.729Z,28.20
2018-08-16T19:25:40.089Z,28.20
2018-08-16T19:28:08.798Z,28.10
2018-08-16T19:30:38.195Z,27.90
2018-08-16T19:33:07.203Z,27.70
2018-08-16T19:35:36.013Z,27.70
2018-08-16T19:38:04.925Z,27.70
2018-08-16T19:40:33.679Z,27.70
2018-08-16T19:43:02.412Z,27.50
2018-08-16T19:45:31.115Z,27.30
2018-08-16T19:47:59.962Z,27.40
2018-08-16T19:50:28.582Z,27.40
2018-08-16T19:52:57.293Z,27.20
2018-08-16T19:55:25.984Z,27.00
2018-08-16T19:57:54.720Z,26.90
2018-08-16T20:00:23.584Z,26.80
2018-08-16T20:02:53.099Z,26.70
2018-08-16T20:05:21.810Z,26.60
2018-08-16T20:07:50.523Z,26.60
2018-08-16T20:10:19.169Z,26.60
2018-08-16T20:12:47.969Z,26.60
2018-08-16T20:15:16.681Z,26.60
2018-08-16T20:17:45.437Z,26.50
2018-08-16T20:20:14.118Z,26.30
2018-08-16T20:22:42.799Z,26.20
2018-08-16T20:25:11.578Z,26.00
2018-08-16T20:27:40.906Z,25.80
2018-08-16T20:30:09.717Z,25.80
2018-08-16T20:32:42.748Z,25.70
2018-08-16T20:35:11.448Z,25.60
2018-08-16T20:37:41.090Z,25.40
2018-08-16T20:40:09.862Z,25.40
2018-08-16T20:42:38.605Z,25.40
2018-08-16T20:45:07.456Z,25.40
2018-08-16T20:47:36.469Z,25.20
2018-08-16T20:50:06.395Z,25.20
2018-08-16T20:52:35.055Z,25.20
2018-08-16T20:55:03.865Z,25.20
2018-08-16T20:57:32.599Z,25.30
2018-08-16T21:00:01.359Z,25.40
2018-08-16T21:02:30.037Z,25.30
2018-08-16T21:04:58.754Z,25.20
2018-08-16T21:07:27.472Z,25.10
2018-08-16T21:09:56.176Z,25.10
2018-08-16T21:12:31.587Z,25.00
2018-08-16T21:15:00.929Z,25.10
2018-08-16T21:17:29.679Z,25.00
2018-08-16T21:19:58.349Z,25.10
2018-08-16T21:22:28.921Z,25.10
2018-08-16T21:24:57.663Z,25.20
2018-08-16T21:27:26.397Z,25.20
2018-08-16T21:29:55.026Z,25.40
2018-08-16T21:32:23.692Z,25.40
2018-08-16T21:34:52.389Z,25.40
2018-08-16T21:37:21.816Z,25.50
2018-08-16T21:39:50.614Z,25.30
2018-08-16T21:42:19.284Z,25.20
2018-08-16T21:44:48.028Z,25.10
2018-08-16T21:47:16.683Z,25.00
2018-08-16T21:49:45.366Z,24.90
2018-08-16T21:52:14.026Z,24.80
2018-08-16T21:54:42.730Z,24.50
2018-08-16T21:57:11.413Z,24.40
2018-08-16T21:59:40.646Z,24.40
2018-08-16T22:02:09.685Z,24.50
2018-08-16T22:04:38.369Z,24.40
2018-08-16T22:07:13.096Z,24.30
2018-08-16T22:09:41.800Z,24.30
2018-08-16T22:12:10.552Z,24.40
2018-08-16T22:14:44.072Z,24.50
2018-08-16T22:17:12.935Z,24.50
2018-08-16T22:19:42.287Z,24.60
2018-08-16T22:22:11.021Z,24.60
2018-08-16T22:24:41.313Z,24.50
2018-08-16T22:27:09.962Z,24.50
2018-08-16T22:29:39.050Z,24.50
2018-08-16T22:32:08.921Z,24.60
2018-08-16T22:34:41.616Z,24.60
2018-08-16T22:37:10.322Z,24.60
2018-08-16T22:39:39.806Z,24.60
2018-08-16T22:42:08.493Z,24.60
2018-08-16T22:44:37.548Z,24.60
2018-08-16T22:47:06.237Z,24.70
2018-08-16T22:49:37.285Z,24.70
2018-08-16T22:52:06.038Z,24.50
2018-08-16T22:54:34.735Z,24.40
2018-08-16T22:57:03.600Z,24.50
2018-08-16T22:59:33.159Z,24.50
2018-08-16T23:02:01.950Z,24.50
2018-08-16T23:04:30.608Z,24.50
2018-08-16T23:06:59.453Z,24.40
2018-08-16T23:09:28.102Z,24.30
2018-08-16T23:11:56.930Z,24.20
2018-08-16T23:14:25.651Z,24.10
2018-08-16T23:16:54.333Z,24.00
2018-08-16T23:19:23.014Z,24.00
2018-08-16T23:21:51.969Z,24.00
2018-08-16T23:24:20.632Z,23.90
2018-08-16T23:26:49.276Z,23.80
2018-08-16T23:29:18.017Z,23.80
2018-08-16T23:31:47.614Z,23.90
2018-08-16T23:34:16.322Z,24.00
2018-08-16T23:36:45.032Z,23.90
2018-08-16T23:39:13.812Z,23.90
2018-08-16T23:41:42.608Z,23.90
2018-08-16T23:44:11.372Z,23.90
2018-08-16T23:46:40.805Z,23.90
2018-08-16T23:49:09.549Z,23.90
2018-08-16T23:51:39.358Z,23.80
2018-08-16T23:54:08.047Z,23.80
2018-08-16T23:56:36.857Z,23.70
2018-08-16T23:59:05.639Z,23.60
